00:55
Airports
History
Links
Donate
Help keep this website running!
PayPal
Bitcoin
This page is community maintained. The information is intended for PC simulator navigation or reference.
Always use approved charts for navigation.
49S
BabbUpdated 21-May-2014
Babb (49S)
Babb, Montana, United States (59411)
4
Lat/Lng:48° 50' 53.6" N / 113° 25' 45.4" W
48.848222 / -113.429278
Elevation:4518'ft / 1377mMSL
Declination:E019°
ID / ICAO:49S
FAA:49S
Runways:1
Longest:14-32
Grass 1,175m / 3,854ft
(Edited 2014-05-21) [ Sign in to Edit ]
Nearby Weather00:39 GMT 2018-02-18
Nearby weather at KCTB, Cut Bank Intl located 50.8 nautical miles from 49S
Altimeter: 29.59
Visibility: 0.5 statute miles
Wind: 10 knots (from 080°)
Temp: -12°c / 10°f
Humidity: 85.0%

METAR: KCTB 180039Z AUTO 08010KT 1/2SM SN FZFG VV008 M12/M14 A2959 RMK AO2 P0000 T11221139

(Powered by phpweather)
Runway 14 / 32
Dimensions:1174.8 x 33.5m 3854' x 110'ft
Surface:Grass
Runway 14 [A]Runway 32 [B]
Heading:140°MH  159°TH320°MH   339°TH
Lat:
Lng:
48° 50' 59.73"N
113° 25' 48.73"W
48° 50' 24.14"N
113° 25' 27.97"W
User Notes and Comments
48° 50' 53.6" N / 113° 25' 45.4" W
Distance To
Airport ID:
Nearby Airports
(U) Starr-browning Airstrip 22.3 NM
8S0 SE 140°
(U) Cardston 23.3 NM
EA6 NNE 21°
4 Whetstone Intl 30.7 NM
H28 ENE 70°
(R) Langton Airstrip 42.1 NM
MT60 W 266°
4 Wurtz 43.4 NM
MT17 W 275°
4 Whitefish 50.0 NM
58S SW 232°
(U) Cut Bank Intl 50.8 NM
KCTB ( WX ) ESE 109°
VFR Chart
Flight Planning at SkyVector.com